Time;durP1;ratioP1;P1;durP2;ratioP2;P2;SDS_P1;SDS_P2;PMS_P1;PMS_P2;Temp;Humidity;BMP_temperature;BMP_pressure;BME280_temperature;BME280_humidity;BME280_pressure;Samples;Min_cycle;Max_cycle;Signal;HPM_P1;HPM_P2
2023/06/26 00:02:20;;;;;;;4.97;2.50;;;21.10;99.10;;;;;;5076358;28;20020;-73
2023/06/26 00:04:46;;;;;;;5.57;2.83;;;21.10;99.10;;;;;;5071550;28;20521;-73
2023/06/26 00:07:12;;;;;;;5.05;3.05;;;21.30;98.90;;;;;;5071779;28;20470;-73
2023/06/26 00:09:37;;;;;;;4.05;2.33;;;21.40;98.80;;;;;;5071164;28;20482;-72
2023/06/26 00:12:03;;;;;;;5.60;3.08;;;21.30;98.80;;;;;;5074585;28;20037;-73
2023/06/26 00:14:29;;;;;;;4.93;2.72;;;21.40;98.90;;;;;;5082833;28;20489;-73
2023/06/26 00:16:55;;;;;;;5.68;2.45;;;21.30;98.90;;;;;;5074200;28;20028;-73
2023/06/26 00:19:21;;;;;;;4.70;3.00;;;21.40;98.80;;;;;;5076471;28;20087;-73
2023/06/26 00:21:47;;;;;;;5.50;3.33;;;21.40;99.00;;;;;;5081507;28;20039;-73
2023/06/26 00:24:17;;;;;;;5.85;3.20;;;21.40;98.90;;;;;;5072410;28;20028;-73
2023/06/26 00:26:43;;;;;;;4.65;2.60;;;21.30;98.90;;;;;;5077515;28;20067;-73
2023/06/26 00:29:09;;;;;;;4.63;2.42;;;21.30;99.00;;;;;;5085865;28;20028;-72
2023/06/26 00:31:38;;;;;;;6.65;2.95;;;21.30;99.00;;;;;;5071392;28;20118;-72
2023/06/26 00:34:03;;;;;;;5.18;2.85;;;21.20;99.20;;;;;;5076139;28;20489;-72
2023/06/26 00:36:29;;;;;;;7.57;3.45;;;21.20;99.20;;;;;;5079109;28;20067;-72
2023/06/26 00:38:55;;;;;;;4.40;2.67;;;21.20;99.20;;;;;;5070205;28;20028;-72
2023/06/26 00:41:20;;;;;;;7.00;2.50;;;21.20;99.20;;;;;;5075908;28;20024;-73
2023/06/26 00:43:46;;;;;;;5.03;2.53;;;21.20;99.10;;;;;;5074220;28;20547;-72
2023/06/26 00:46:15;;;;;;;5.40;2.88;;;21.20;99.20;;;;;;5077514;28;20509;-73
2023/06/26 00:48:42;;;;;;;6.32;2.92;;;21.10;99.30;;;;;;5086869;28;20063;-72
2023/06/26 00:51:08;;;;;;;5.38;2.97;;;21.20;99.30;;;;;;5085196;28;20028;-73
2023/06/26 00:53:34;;;;;;;7.95;3.40;;;21.10;99.40;;;;;;5074613;28;20103;-73
2023/06/26 00:56:02;;;;;;;4.05;2.25;;;21.10;99.40;;;;;;5071012;28;20052;-73
2023/06/26 00:58:28;;;;;;;4.68;2.88;;;21.10;99.50;;;;;;5080924;28;20561;-73
2023/06/26 01:00:54;;;;;;;6.30;3.17;;;21.10;99.60;;;;;;5079608;28;20036;-72
2023/06/26 01:03:22;;;;;;;4.60;2.80;;;21.00;99.60;;;;;;5088803;28;20363;-72
2023/06/26 01:05:49;;;;;;;6.65;3.05;;;21.10;99.40;;;;;;5076137;28;20167;-72
2023/06/26 01:08:17;;;;;;;3.97;2.47;;;21.10;99.50;;;;;;5076782;28;20032;-72
2023/06/26 01:10:43;;;;;;;4.72;2.38;;;21.00;99.60;;;;;;5074988;28;20094;-72
2023/06/26 01:13:09;;;;;;;7.45;2.88;;;20.90;99.80;;;;;;5083011;28;20024;-72
2023/06/26 01:15:35;;;;;;;4.15;2.35;;;20.80;99.90;;;;;;5072710;28;20378;-72
2023/06/26 01:18:03;;;;;;;4.82;2.47;;;20.90;99.80;;;;;;5069635;28;20081;-73
2023/06/26 01:20:39;;;;;;;5.15;3.10;;;20.90;99.80;;;;;;5073975;28;20042;-73
2023/06/26 01:23:14;;;;;;;7.60;3.15;;;20.80;99.90;;;;;;5078047;28;20089;-73
2023/06/26 01:26:05;;;;;;;5.28;3.08;;;20.80;99.90;;;;;;5078958;28;20037;-73
2023/06/26 01:28:33;;;;;;;6.03;2.92;;;20.80;99.90;;;;;;5080204;28;20452;-73
2023/06/26 01:31:00;;;;;;;6.05;2.92;;;20.80;99.90;;;;;;5068573;28;20614;-72
2023/06/26 01:33:26;;;;;;;4.70;3.13;;;20.80;99.90;;;;;;5084191;28;20028;-73
2023/06/26 01:35:52;;;;;;;4.97;2.40;;;20.80;99.90;;;;;;5077700;28;20031;-73
2023/06/26 01:38:20;;;;;;;4.80;3.00;;;20.70;99.90;;;;;;5082621;28;20028;-73
2023/06/26 01:40:46;;;;;;;6.90;3.13;;;20.50;99.90;;;;;;5076662;28;20020;-72
2023/06/26 01:43:18;;;;;;;7.05;3.13;;;20.50;99.90;;;;;;5070937;28;20032;-73
2023/06/26 01:45:48;;;;;;;7.05;3.08;;;20.40;99.90;;;;;;5073699;28;20068;-73
2023/06/26 01:48:20;;;;;;;4.53;2.63;;;20.60;99.90;;;;;;5076136;28;20028;-73
2023/06/26 01:50:46;;;;;;;5.13;3.38;;;20.60;99.90;;;;;;5073392;28;20039;-73
2023/06/26 01:53:17;;;;;;;4.40;2.47;;;20.50;99.90;;;;;;5079659;28;20029;-73
2023/06/26 01:55:43;;;;;;;4.65;2.85;;;20.50;99.90;;;;;;5070293;28;20029;-73
2023/06/26 01:58:09;;;;;;;4.78;2.78;;;20.60;99.90;;;;;;5078746;28;20363;-73
2023/06/26 02:00:36;;;;;;;4.85;2.90;;;20.70;99.90;;;;;;5070154;28;20390;-73
2023/06/26 02:03:04;;;;;;;4.97;2.90;;;20.60;99.90;;;;;;5069075;28;20028;-72
2023/06/26 02:05:30;;;;;;;4.07;2.35;;;20.50;99.90;;;;;;5084515;28;20474;-72
2023/06/26 02:07:56;;;;;;;4.72;2.83;;;20.40;99.90;;;;;;5078893;28;20027;-72
2023/06/26 02:10:22;;;;;;;5.22;2.58;;;20.50;99.90;;;;;;5080437;28;20073;-72
2023/06/26 02:12:47;;;;;;;4.57;2.85;;;20.60;99.90;;;;;;5076767;28;20052;-72
2023/06/26 02:15:13;;;;;;;4.40;2.58;;;20.60;99.90;;;;;;5069546;28;20028;-72
2023/06/26 02:17:39;;;;;;;6.25;3.08;;;20.50;99.90;;;;;;5076676;28;20039;-72
2023/06/26 02:20:06;;;;;;;10.95;3.58;;;20.50;99.90;;;;;;5069236;28;20025;-72
2023/06/26 02:22:31;;;;;;;4.70;3.17;;;20.60;99.90;;;;;;5073099;28;20028;-71
2023/06/26 02:24:57;;;;;;;4.40;2.60;;;20.70;99.90;;;;;;5076050;28;20098;-71
2023/06/26 02:27:23;;;;;;;7.50;2.92;;;20.50;99.90;;;;;;5075573;28;20662;-71
2023/06/26 02:29:49;;;;;;;4.78;2.70;;;20.60;99.90;;;;;;5068014;28;20523;-72
2023/06/26 02:32:14;;;;;;;5.57;3.08;;;20.60;99.90;;;;;;5081793;28;20463;-71
2023/06/26 02:34:40;;;;;;;14.77;3.55;;;20.40;99.90;;;;;;5075462;28;20832;-71
2023/06/26 02:37:07;;;;;;;4.65;2.70;;;20.60;99.90;;;;;;5075735;28;20069;-71
2023/06/26 02:39:34;;;;;;;5.70;3.10;;;20.60;99.90;;;;;;5075929;28;20032;-71
2023/06/26 02:41:59;;;;;;;5.15;3.00;;;20.60;99.90;;;;;;5082735;28;20021;-72
2023/06/26 02:44:25;;;;;;;5.25;3.33;;;20.50;99.90;;;;;;5074980;28;20027;-71
2023/06/26 02:46:51;;;;;;;4.82;2.80;;;20.40;99.90;;;;;;5090084;28;20033;-72
2023/06/26 02:49:16;;;;;;;6.20;3.30;;;20.30;99.90;;;;;;5089455;28;20121;-71
2023/06/26 02:51:42;;;;;;;6.13;2.97;;;20.40;99.90;;;;;;5082869;28;20959;-72
2023/06/26 02:54:08;;;;;;;5.53;2.90;;;20.20;99.90;;;;;;5085036;28;20474;-72
2023/06/26 02:56:33;;;;;;;5.78;3.00;;;20.30;99.90;;;;;;5083473;28;20107;-72
2023/06/26 02:58:59;;;;;;;6.05;3.03;;;20.20;99.90;;;;;;5079927;28;20021;-71
2023/06/26 03:01:25;;;;;;;4.72;3.10;;;20.10;99.90;;;;;;5072297;28;20364;-72
2023/06/26 03:03:52;;;;;;;6.03;3.25;;;19.90;99.90;;;;;;5072440;28;20028;-73
2023/06/26 03:06:18;;;;;;;5.55;2.90;;;20.10;99.90;;;;;;5066468;28;20040;-73
2023/06/26 03:08:43;;;;;;;7.15;3.15;;;20.10;99.90;;;;;;5065891;28;20025;-73
2023/06/26 03:11:10;;;;;;;6.95;3.13;;;20.00;99.90;;;;;;5074344;28;20028;-72
2023/06/26 03:13:36;;;;;;;5.55;3.00;;;19.90;99.90;;;;;;5067329;28;20036;-72
2023/06/26 03:16:03;;;;;;;5.72;3.08;;;20.10;99.90;;;;;;5066252;28;20024;-72
2023/06/26 03:18:28;;;;;;;5.40;2.83;;;20.10;99.90;;;;;;5065283;28;20032;-73
2023/06/26 03:20:56;;;;;;;6.10;3.47;;;20.30;99.90;;;;;;5063943;28;20024;-72
2023/06/26 03:23:22;;;;;;;5.03;3.13;;;20.30;99.90;;;;;;5066011;28;20028;-73
2023/06/26 03:25:49;;;;;;;7.20;3.08;;;20.30;99.90;;;;;;5074619;28;20159;-72
2023/06/26 03:28:15;;;;;;;8.02;3.63;;;20.50;99.90;;;;;;5077927;28;20036;-73
2023/06/26 03:30:40;;;;;;;5.40;2.88;;;20.20;99.90;;;;;;5079559;28;20093;-73
2023/06/26 03:33:06;;;;;;;7.47;3.22;;;20.30;99.90;;;;;;5080726;28;20503;-73
2023/06/26 03:35:32;;;;;;;3.88;2.33;;;20.20;99.90;;;;;;5076308;28;20059;-73
2023/06/26 03:37:58;;;;;;;5.18;2.90;;;20.40;99.90;;;;;;5073583;28;20039;-73
2023/06/26 03:40:24;;;;;;;5.63;3.40;;;20.10;99.90;;;;;;5075180;28;20111;-73
2023/06/26 03:42:50;;;;;;;4.00;2.75;;;20.10;99.90;;;;;;5066208;28;20162;-73
2023/06/26 03:45:15;;;;;;;4.68;3.03;;;19.80;99.90;;;;;;5081513;28;20130;-73
2023/06/26 03:47:41;;;;;;;4.68;2.63;;;19.90;99.90;;;;;;5067026;28;20032;-73
2023/06/26 03:50:07;;;;;;;7.57;3.85;;;19.70;99.90;;;;;;5080951;28;20057;-73
2023/06/26 03:52:33;;;;;;;4.25;2.67;;;19.70;99.90;;;;;;5075019;28;20030;-72
2023/06/26 03:54:58;;;;;;;7.15;3.35;;;19.60;99.90;;;;;;5073631;28;20028;-72
2023/06/26 03:57:24;;;;;;;4.45;2.53;;;19.70;99.90;;;;;;5068620;28;20079;-73
2023/06/26 03:59:51;;;;;;;10.30;3.70;;;19.90;99.90;;;;;;5076374;28;20105;-73
2023/06/26 04:02:17;;;;;;;6.53;3.28;;;20.10;99.90;;;;;;5072814;28;20790;-72
2023/06/26 04:04:43;;;;;;;5.55;3.08;;;19.90;99.90;;;;;;5062774;28;20041;-73
2023/06/26 04:07:09;;;;;;;5.78;3.15;;;19.90;99.90;;;;;;5068832;28;20121;-72
2023/06/26 04:09:34;;;;;;;5.30;2.88;;;19.80;99.90;;;;;;5071490;28;20409;-73
2023/06/26 04:12:00;;;;;;;6.07;3.47;;;19.60;99.90;;;;;;5079449;28;20867;-73
2023/06/26 04:14:26;;;;;;;6.20;2.97;;;19.80;99.90;;;;;;5075812;28;20024;-73
2023/06/26 04:16:51;;;;;;;5.68;3.22;;;19.80;99.90;;;;;;5066070;28;20359;-73
2023/06/26 04:19:17;;;;;;;8.07;3.90;;;19.70;99.90;;;;;;5070287;28;20587;-73
2023/06/26 04:21:43;;;;;;;8.60;2.90;;;19.60;99.90;;;;;;5069985;28;20408;-73
2023/06/26 04:24:08;;;;;;;6.88;3.58;;;19.50;99.90;;;;;;5073027;28;20478;-73
2023/06/26 04:26:34;;;;;;;6.70;3.20;;;19.40;99.90;;;;;;5070324;28;20099;-73
2023/06/26 04:29:00;;;;;;;8.18;3.55;;;19.60;99.90;;;;;;5060825;28;23647;-73
2023/06/26 04:31:26;;;;;;;7.13;3.92;;;19.80;99.90;;;;;;5069564;28;20024;-73
2023/06/26 04:33:54;;;;;;;5.03;3.00;;;19.90;99.90;;;;;;5070565;28;20024;-73
2023/06/26 04:36:20;;;;;;;5.75;3.03;;;20.10;99.90;;;;;;5066462;28;20036;-73
2023/06/26 04:38:48;;;;;;;7.43;3.65;;;20.20;99.90;;;;;;5063282;28;20079;-73
2023/06/26 04:41:13;;;;;;;9.38;3.40;;;20.20;99.90;;;;;;5076379;28;20028;-73
2023/06/26 04:43:39;;;;;;;4.88;3.33;;;20.10;99.90;;;;;;5065697;28;20035;-73
2023/06/26 04:46:05;;;;;;;7.75;2.88;;;20.20;99.90;;;;;;5064421;28;20032;-73
2023/06/26 04:48:32;;;;;;;5.45;3.33;;;20.30;99.90;;;;;;5070075;28;20036;-73
2023/06/26 04:50:58;;;;;;;5.65;3.08;;;20.30;99.90;;;;;;5067170;28;20024;-73
2023/06/26 04:53:25;;;;;;;5.05;3.40;;;19.90;99.90;;;;;;5070968;28;20024;-73
2023/06/26 04:55:53;;;;;;;5.93;2.97;;;19.90;99.90;;;;;;5073284;28;20023;-73
2023/06/26 04:58:19;;;;;;;4.78;3.05;;;19.80;99.90;;;;;;5061359;28;20052;-73
2023/06/26 05:00:45;;;;;;;5.40;2.83;;;19.80;99.90;;;;;;5061807;28;20028;-73
2023/06/26 05:03:17;;;;;;;7.05;3.20;;;19.70;99.90;;;;;;5066244;28;20021;-73
2023/06/26 05:05:43;;;;;;;6.53;3.17;;;19.50;99.90;;;;;;5070188;28;20032;-73
2023/06/26 05:08:14;;;;;;;5.90;3.10;;;19.80;99.90;;;;;;5071504;28;20077;-73
2023/06/26 05:10:40;;;;;;;6.75;3.65;;;19.70;99.90;;;;;;5074186;28;20039;-73
2023/06/26 05:13:06;;;;;;;5.65;3.22;;;19.70;99.90;;;;;;5069168;28;20024;-73
2023/06/26 05:15:31;;;;;;;5.95;3.38;;;19.80;99.90;;;;;;5068609;28;20487;-73
2023/06/26 05:17:57;;;;;;;5.25;2.97;;;19.80;99.90;;;;;;5067228;28;20698;-72
2023/06/26 05:20:23;;;;;;;5.68;3.22;;;20.00;99.90;;;;;;5069596;28;20028;-73
2023/06/26 05:22:49;;;;;;;5.10;3.30;;;20.00;99.90;;;;;;5061605;28;20447;-72
2023/06/26 05:25:15;;;;;;;4.68;2.67;;;20.10;99.90;;;;;;5063390;28;20048;-74
2023/06/26 05:27:42;;;;;;;5.53;3.38;;;20.00;99.90;;;;;;5064737;28;20028;-73
2023/06/26 05:30:08;;;;;;;5.97;3.53;;;20.00;99.90;;;;;;5063951;28;20069;-72
2023/06/26 05:32:36;;;;;;;6.47;2.95;;;19.90;99.90;;;;;;5077172;28;20031;-72
2023/06/26 05:35:04;;;;;;;6.00;3.60;;;20.20;99.90;;;;;;5068009;28;20635;-72
2023/06/26 05:37:31;;;;;;;7.13;3.55;;;20.20;99.90;;;;;;5067337;28;20028;-75
2023/06/26 05:39:57;;;;;;;5.25;3.33;;;20.20;99.90;;;;;;5074736;28;20035;-74
2023/06/26 05:42:23;;;;;;;4.47;2.83;;;20.20;99.90;;;;;;5079287;28;20861;-72
2023/06/26 05:44:49;;;;;;;8.90;3.60;;;20.30;99.90;;;;;;5071311;28;20036;-71
2023/06/26 05:47:14;;;;;;;6.57;3.60;;;20.50;99.90;;;;;;5068007;28;20091;-72
2023/06/26 05:49:40;;;;;;;5.72;3.15;;;20.60;99.90;;;;;;5073691;28;20035;-71
2023/06/26 05:52:06;;;;;;;5.50;3.72;;;20.70;99.90;;;;;;5071299;28;20052;-72
2023/06/26 05:54:32;;;;;;;6.88;3.42;;;20.70;99.90;;;;;;5065500;28;20040;-71
2023/06/26 05:56:59;;;;;;;5.88;3.55;;;20.80;99.90;;;;;;5073321;28;20098;-72
2023/06/26 05:59:26;;;;;;;7.78;3.97;;;20.70;99.90;;;;;;5061341;28;20551;-72
2023/06/26 06:01:52;;;;;;;9.98;4.43;;;20.80;99.90;;;;;;5074980;28;20475;-72
2023/06/26 06:04:18;;;;;;;10.10;3.90;;;20.80;99.90;;;;;;5080381;28;20603;-72
2023/06/26 06:06:44;;;;;;;6.10;3.95;;;20.80;99.90;;;;;;5069771;28;20051;-72
2023/06/26 06:09:09;;;;;;;6.70;3.92;;;20.80;99.90;;;;;;5063096;28;20029;-72
2023/06/26 06:11:35;;;;;;;17.38;4.30;;;20.90;99.90;;;;;;5077863;28;20574;-72
2023/06/26 06:14:01;;;;;;;12.32;3.95;;;21.00;99.90;;;;;;5072533;28;20032;-72
2023/06/26 06:16:28;;;;;;;5.57;3.70;;;21.00;99.90;;;;;;5069457;28;20036;-72
2023/06/26 06:18:54;;;;;;;5.95;3.83;;;21.10;99.90;;;;;;5068470;28;20040;-71
2023/06/26 06:21:20;;;;;;;7.28;4.05;;;21.20;99.90;;;;;;5079232;28;20028;-71
2023/06/26 06:23:46;;;;;;;8.48;4.13;;;21.30;99.90;;;;;;5067025;28;20037;-71
2023/06/26 06:26:12;;;;;;;7.60;4.35;;;21.40;99.90;;;;;;5062589;28;20119;-72
2023/06/26 06:28:39;;;;;;;8.15;3.95;;;21.40;99.90;;;;;;5153980;22;20144;-71
2023/06/26 06:31:05;;;;;;;7.05;4.13;;;21.50;99.90;;;;;;5019974;28;20397;-71
2023/06/26 06:33:30;;;;;;;6.35;3.60;;;21.50;99.90;;;;;;5021146;28;20037;-71
2023/06/26 06:35:56;;;;;;;9.98;4.32;;;21.60;99.90;;;;;;5018163;28;20376;-72
2023/06/26 06:38:22;;;;;;;9.55;4.80;;;21.70;99.90;;;;;;5021121;28;20060;-73
2023/06/26 06:40:48;;;;;;;7.25;4.00;;;21.70;99.90;;;;;;5015972;28;20116;-72
2023/06/26 06:43:13;;;;;;;7.05;3.85;;;21.80;99.90;;;;;;5018626;28;20067;-72
2023/06/26 06:45:39;;;;;;;7.47;4.20;;;21.80;99.90;;;;;;5011400;28;20069;-72
2023/06/26 06:48:05;;;;;;;8.45;3.70;;;21.80;99.90;;;;;;5017286;28;20636;-72
2023/06/26 06:50:31;;;;;;;8.98;3.85;;;21.80;99.90;;;;;;5019660;28;20569;-73
2023/06/26 06:52:57;;;;;;;6.47;3.60;;;21.90;99.90;;;;;;5016101;28;20104;-72
2023/06/26 06:55:23;;;;;;;6.45;3.90;;;22.00;99.90;;;;;;5019458;28;20483;-73
2023/06/26 06:57:50;;;;;;;5.90;3.85;;;22.10;99.90;;;;;;5021506;28;20064;-73
2023/06/26 07:00:16;;;;;;;7.43;3.67;;;22.20;99.90;;;;;;5019067;28;20041;-72
2023/06/26 07:02:45;;;;;;;11.00;4.10;;;22.50;99.90;;;;;;5016960;28;20038;-72
2023/06/26 07:05:12;;;;;;;8.65;3.35;;;22.70;99.90;;;;;;5018504;28;20029;-72
2023/06/26 07:07:38;;;;;;;7.93;3.83;;;22.90;99.90;;;;;;5017496;28;20029;-72
2023/06/26 07:10:09;;;;;;;6.85;3.95;;;23.00;99.90;;;;;;5018123;28;20026;-72
2023/06/26 07:12:35;;;;;;;6.88;3.72;;;23.30;99.90;;;;;;5015197;28;20045;-73
2023/06/26 07:15:04;;;;;;;7.25;3.92;;;23.50;98.90;;;;;;5022223;28;20029;-73
2023/06/26 07:17:33;;;;;;;7.38;3.53;;;23.70;98.20;;;;;;5019633;28;20554;-72
2023/06/26 07:20:00;;;;;;;9.38;3.92;;;24.00;97.90;;;;;;5019146;28;20136;-73
2023/06/26 07:22:26;;;;;;;5.65;3.53;;;24.20;97.70;;;;;;5021462;28;20358;-73
2023/06/26 07:24:52;;;;;;;9.73;3.92;;;24.50;97.80;;;;;;5020294;28;20066;-73
2023/06/26 07:27:20;;;;;;;13.25;4.18;;;24.80;97.40;;;;;;5020183;28;20069;-73
2023/06/26 07:29:46;;;;;;;7.03;3.80;;;24.90;97.20;;;;;;5021586;28;20378;-73
2023/06/26 07:32:12;;;;;;;5.97;3.67;;;25.10;97.10;;;;;;5022946;28;20030;-73
2023/06/26 07:34:38;;;;;;;6.18;3.75;;;25.80;96.50;;;;;;5021363;28;20061;-72
2023/06/26 07:37:04;;;;;;;5.88;3.25;;;26.70;95.30;;;;;;5023299;28;20138;-72
2023/06/26 07:39:30;;;;;;;9.02;3.92;;;27.30;94.60;;;;;;5020898;28;20025;-72
2023/06/26 07:41:58;;;;;;;5.78;3.58;;;27.70;93.40;;;;;;5022201;28;20033;-72
2023/06/26 07:44:23;;;;;;;5.85;3.88;;;28.00;93.30;;;;;;5024265;28;20061;-72
2023/06/26 07:46:49;;;;;;;6.60;3.92;;;28.10;92.70;;;;;;5023948;28;20442;-72
2023/06/26 07:49:15;;;;;;;7.75;4.53;;;28.10;92.40;;;;;;5023473;28;20339;-72
2023/06/26 07:51:41;;;;;;;6.97;3.85;;;27.90;93.20;;;;;;5024489;28;20036;-71
2023/06/26 07:54:07;;;;;;;7.20;4.00;;;27.80;92.80;;;;;;5026225;28;20071;-73
2023/06/26 07:56:53;;;;;;;5.63;4.00;;;27.80;92.60;;;;;;5023608;28;20026;-72
2023/06/26 07:59:20;;;;;;;6.05;3.75;;;27.80;92.80;;;;;;5021925;28;20024;-72
2023/06/26 08:01:46;;;;;;;8.15;4.05;;;27.50;93.20;;;;;;5023573;28;20025;-72
2023/06/26 08:04:12;;;;;;;9.55;4.45;;;27.50;93.60;;;;;;5024623;28;20037;-72
2023/06/26 08:06:40;;;;;;;6.30;4.13;;;27.50;93.70;;;;;;5022913;28;20049;-73
2023/06/26 08:09:07;;;;;;;6.40;3.58;;;27.30;93.30;;;;;;5019231;28;20025;-72
2023/06/26 08:11:33;;;;;;;6.90;4.40;;;27.40;92.90;;;;;;5025489;28;20507;-72
2023/06/26 08:14:00;;;;;;;8.30;4.03;;;27.20;93.20;;;;;;5022405;28;20034;-72
2023/06/26 08:16:26;;;;;;;7.70;4.50;;;27.30;93.70;;;;;;5026739;28;20033;-72
2023/06/26 08:18:51;;;;;;;7.22;3.83;;;27.10;93.70;;;;;;5028847;28;20079;-72
2023/06/26 08:21:17;;;;;;;8.88;4.63;;;27.30;94.10;;;;;;5026333;28;20021;-72
2023/06/26 08:23:43;;;;;;;7.90;4.00;;;27.20;93.30;;;;;;5026481;28;20033;-72
2023/06/26 08:26:09;;;;;;;13.48;4.50;;;27.30;93.70;;;;;;5027326;28;20506;-72
2023/06/26 08:28:34;;;;;;;49.47;6.05;;;27.50;93.90;;;;;;5025537;28;20080;-72
2023/06/26 08:31:00;;;;;;;17.98;4.45;;;27.50;93.90;;;;;;5026863;28;20061;-72
2023/06/26 08:33:26;;;;;;;8.23;3.50;;;27.70;93.40;;;;;;5031673;28;20039;-72
2023/06/26 08:35:52;;;;;;;8.30;4.60;;;27.70;93.50;;;;;;5026435;28;20061;-72
2023/06/26 08:38:21;;;;;;;9.20;3.95;;;27.80;93.50;;;;;;5022287;28;20025;-72
2023/06/26 08:40:47;;;;;;;6.43;3.60;;;27.60;93.10;;;;;;5025451;28;20037;-72
2023/06/26 08:43:12;;;;;;;6.95;3.92;;;27.60;92.90;;;;;;5026855;28;20443;-72
2023/06/26 08:45:38;;;;;;;9.35;4.28;;;27.50;93.10;;;;;;5023691;28;22311;-72
2023/06/26 08:48:07;;;;;;;5.38;4.00;;;27.30;93.40;;;;;;5023835;28;20040;-72
2023/06/26 08:50:35;;;;;;;7.05;4.40;;;27.40;94.30;;;;;;5023294;28;20029;-72
2023/06/26 08:53:21;;;;;;;8.45;4.05;;;27.70;93.50;;;;;;5025968;28;20043;-72
2023/06/26 08:55:51;;;;;;;4.88;3.40;;;27.90;92.70;;;;;;5027052;28;20033;-72
2023/06/26 08:58:18;;;;;;;5.85;3.80;;;28.30;92.70;;;;;;5026183;28;20091;-72
2023/06/26 09:00:44;;;;;;;8.82;3.90;;;28.60;93.30;;;;;;5026907;28;20445;-72
2023/06/26 09:03:09;;;;;;;6.63;4.05;;;28.30;93.80;;;;;;5027152;28;20025;-72
2023/06/26 09:05:36;;;;;;;8.18;4.00;;;28.60;93.30;;;;;;5023276;28;20485;-72
2023/06/26 09:08:03;;;;;;;5.40;3.90;;;28.50;92.10;;;;;;5022104;28;20112;-72
2023/06/26 09:10:29;;;;;;;6.32;4.18;;;28.40;91.90;;;;;;5025883;28;20041;-72
2023/06/26 09:12:58;;;;;;;5.68;3.38;;;28.60;92.40;;;;;;5023837;28;20048;-74
2023/06/26 09:15:24;;;;;;;6.13;3.50;;;28.60;91.60;;;;;;5035374;28;20057;-72
2023/06/26 09:17:50;;;;;;;5.80;3.50;;;28.50;91.90;;;;;;5036582;28;20033;-72
2023/06/26 09:20:16;;;;;;;5.28;3.78;;;28.50;91.80;;;;;;5019039;28;20443;-73
2023/06/26 09:22:46;;;;;;;7.45;3.45;;;28.80;91.80;;;;;;5024348;28;20471;-72
2023/06/26 09:25:12;;;;;;;7.65;4.05;;;28.80;91.40;;;;;;5023555;28;20034;-72
2023/06/26 09:27:38;;;;;;;6.90;4.43;;;29.10;91.70;;;;;;5036568;28;20050;-72
2023/06/26 09:30:06;;;;;;;10.48;4.03;;;28.90;91.40;;;;;;5025409;28;20087;-72
2023/06/26 09:32:37;;;;;;;9.18;4.28;;;28.80;91.90;;;;;;5024636;28;20033;-72
2023/06/26 09:35:04;;;;;;;5.70;3.83;;;29.00;91.40;;;;;;5021314;28;20079;-72
2023/06/26 09:37:30;;;;;;;5.40;3.70;;;29.20;91.60;;;;;;5024342;28;20051;-72
2023/06/26 09:39:56;;;;;;;5.85;3.92;;;29.50;90.80;;;;;;5023988;28;20029;-72
2023/06/26 09:42:23;;;;;;;5.78;3.92;;;29.40;90.20;;;;;;5024936;28;20029;-72
2023/06/26 09:44:49;;;;;;;7.95;4.00;;;29.40;90.60;;;;;;5022309;28;20072;-72
2023/06/26 09:47:19;;;;;;;6.50;2.85;;;29.70;90.50;;;;;;5023154;28;20569;-71
2023/06/26 09:49:45;;;;;;;6.03;2.83;;;29.30;88.50;;;;;;5024363;28;20613;-72
2023/06/26 09:52:18;;;;;;;5.32;3.33;;;29.50;90.20;;;;;;5023733;28;20025;-71
2023/06/26 09:54:44;;;;;;;7.63;4.00;;;29.80;90.30;;;;;;5024229;28;20383;-72
2023/06/26 09:57:18;;;;;;;8.85;4.10;;;29.80;87.90;;;;;;5022723;28;20037;-72
2023/06/26 09:59:45;;;;;;;;;;;29.80;88.90;;;;;;5023474;28;20088;-72
2023/06/26 10:02:11;;;;;;;5.45;3.20;;;29.90;88.60;;;;;;5024164;28;19909;-72
2023/06/26 10:04:37;;;;;;;4.80;3.10;;;30.20;88.10;;;;;;5023694;28;20025;-72
2023/06/26 10:07:13;;;;;;;7.07;3.47;;;30.60;85.40;;;;;;5022022;28;20079;-72
2023/06/26 10:09:42;;;;;;;5.78;3.35;;;31.00;84.70;;;;;;5023653;28;20041;-73
2023/06/26 10:12:17;;;;;;;5.38;3.53;;;31.00;84.60;;;;;;5025916;28;20083;-72
2023/06/26 10:14:43;;;;;;;6.78;3.33;;;30.90;85.60;;;;;;5019865;28;20059;-72
2023/06/26 10:17:20;;;;;;;5.53;2.97;;;30.70;87.50;;;;;;5024331;28;20387;-72
2023/06/26 10:19:47;;;;;;;5.63;3.50;;;30.40;83.50;;;;;;5023971;28;20021;-72
2023/06/26 10:22:17;;;;;;;6.30;3.38;;;30.50;84.80;;;;;;5023280;28;20410;-72
2023/06/26 10:24:44;;;;;;;5.32;3.70;;;30.80;83.20;;;;;;5022596;28;20429;-72
2023/06/26 10:27:19;;;;;;;7.88;3.33;;;31.00;82.40;;;;;;5024718;28;20045;-72
2023/06/26 10:30:00;;;;;;;21.10;3.92;;;31.30;81.20;;;;;;5023844;28;20060;-72
2023/06/26 10:32:27;;;;;;;7.13;3.40;;;30.90;82.70;;;;;;5016087;28;20030;-72
2023/06/26 10:34:55;;;;;;;4.90;3.05;;;31.30;82.10;;;;;;5019422;28;20036;-72
2023/06/26 10:37:21;;;;;;;5.25;3.05;;;31.40;81.70;;;;;;5021144;28;20026;-72
2023/06/26 10:39:51;;;;;;;8.52;3.15;;;31.50;81.10;;;;;;5020180;28;20021;-72
2023/06/26 10:42:18;;;;;;;38.60;5.07;;;31.60;83.50;;;;;;5021228;28;20206;-72
2023/06/26 10:44:46;;;;;;;4.90;3.22;;;31.90;82.70;;;;;;5022376;28;20025;-72
2023/06/26 10:47:32;;;;;;;5.90;3.55;;;31.90;81.50;;;;;;4996678;28;20042;-72
2023/06/26 10:50:28;;;;;;;4.63;3.00;;;31.70;80.60;;;;;;5016803;28;20676;-72
2023/06/26 10:53:33;;;;;;;6.40;3.15;;;31.90;82.60;;;;;;5014025;28;20462;-72
2023/06/26 10:56:04;;;;;;;7.93;3.67;;;32.00;81.60;;;;;;5020788;28;20014;-72
2023/06/26 10:58:34;;;;;;;5.32;3.88;;;32.20;80.00;;;;;;5020333;28;20025;-72
2023/06/26 11:01:22;;;;;;;7.35;3.50;;;32.20;82.20;;;;;;5022396;28;20029;-72
2023/06/26 11:03:49;;;;;;;5.93;3.22;;;31.90;80.60;;;;;;5023186;28;20025;-72
2023/06/26 11:06:21;;;;;;;6.53;3.63;;;32.20;81.00;;;;;;5022759;28;20041;-72
2023/06/26 11:08:46;;;;;;;6.47;3.53;;;32.00;80.20;;;;;;5024631;28;20030;-72
2023/06/26 11:11:12;;;;;;;5.60;3.97;;;31.90;80.00;;;;;;5024064;28;20428;-72
2023/06/26 11:13:39;;;;;;;5.38;3.25;;;31.80;80.00;;;;;;5024015;28;20042;-72
2023/06/26 11:16:05;;;;;;;6.65;3.22;;;32.20;80.00;;;;;;5026041;28;20029;-72
2023/06/26 11:18:32;;;;;;;5.38;3.20;;;32.60;79.90;;;;;;5024989;28;20033;-71
2023/06/26 11:21:13;;;;;;;6.22;3.95;;;32.50;79.40;;;;;;5026895;28;20048;-72
2023/06/26 11:23:40;;;;;;;5.65;3.20;;;32.50;78.30;;;;;;5026184;28;20053;-72
2023/06/26 11:26:22;;;;;;;4.70;3.03;;;32.50;78.20;;;;;;5026847;28;20038;-72
2023/06/26 11:28:55;;;;;;;5.95;3.08;;;32.30;78.10;;;;;;5024639;28;20073;-72
2023/06/26 11:31:40;;;;;;;6.53;3.72;;;32.20;78.50;;;;;;5026591;28;20108;-72
2023/06/26 11:34:11;;;;;;;6.50;3.17;;;32.50;77.90;;;;;;5028039;28;20087;-72
2023/06/26 11:36:38;;;;;;;6.07;3.30;;;32.80;78.50;;;;;;5026363;28;20107;-72
2023/06/26 11:39:06;;;;;;;4.75;3.30;;;32.70;76.20;;;;;;5020828;28;20850;-72
2023/06/26 11:41:33;;;;;;;5.90;3.10;;;32.50;76.40;;;;;;5026310;28;20128;-72
2023/06/26 11:44:14;;;;;;;5.47;3.17;;;32.50;75.70;;;;;;5026874;28;20104;-72
2023/06/26 11:46:39;;;;;;;5.93;3.38;;;32.60;75.10;;;;;;5026238;28;20034;-72
2023/06/26 11:49:06;;;;;;;7.50;3.47;;;32.80;75.10;;;;;;5026339;28;20104;-72
2023/06/26 11:51:33;;;;;;;5.18;3.03;;;32.90;76.20;;;;;;5026040;28;20124;-72
2023/06/26 11:54:02;;;;;;;6.72;3.13;;;32.90;77.00;;;;;;5022210;28;20021;-72
2023/06/26 11:56:29;;;;;;;6.43;3.08;;;33.10;76.20;;;;;;5024151;28;20112;-72
2023/06/26 11:59:04;;;;;;;5.75;3.50;;;33.30;75.90;;;;;;5022574;28;20033;-72
2023/06/26 12:01:35;;;;;;;5.13;3.08;;;33.00;74.40;;;;;;5019848;28;20033;-72
2023/06/26 12:04:04;;;;;;;5.50;3.20;;;32.80;75.20;;;;;;5021985;28;20100;-72
2023/06/26 12:06:32;;;;;;;8.30;3.15;;;32.90;74.90;;;;;;5022313;28;20037;-72
2023/06/26 12:09:00;;;;;;;8.15;3.42;;;33.30;76.30;;;;;;5022564;28;20041;-72
2023/06/26 12:11:28;;;;;;;8.38;3.92;;;33.50;76.20;;;;;;5023829;28;20025;-72
2023/06/26 12:13:54;;;;;;;5.50;3.60;;;33.60;76.80;;;;;;5021133;28;20029;-72
2023/06/26 12:16:20;;;;;;;8.15;4.03;;;33.30;75.30;;;;;;5022703;28;20029;-72
2023/06/26 12:18:46;;;;;;;4.75;3.05;;;33.20;77.30;;;;;;5023085;28;20035;-72
2023/06/26 12:21:37;;;;;;;6.00;3.58;;;33.60;77.20;;;;;;5022195;28;20025;-72
2023/06/26 12:24:03;;;;;;;6.90;3.28;;;34.10;76.40;;;;;;5023266;28;20408;-71
2023/06/26 12:26:29;;;;;;;6.22;3.45;;;33.80;76.60;;;;;;5021178;28;20087;-71
2023/06/26 12:29:02;;;;;;;7.40;3.50;;;33.90;76.00;;;;;;5023756;28;20049;-71
2023/06/26 12:31:28;;;;;;;5.43;3.63;;;33.90;75.60;;;;;;5018084;28;20593;-71
2023/06/26 12:33:54;;;;;;;8.40;3.13;;;33.80;76.00;;;;;;5022632;28;20786;-71
2023/06/26 12:36:19;;;;;;;9.70;3.05;;;33.90;76.40;;;;;;5023030;28;20116;-71
2023/06/26 12:38:46;;;;;;;6.97;3.47;;;33.80;75.50;;;;;;5019296;28;20124;-72
2023/06/26 12:41:15;;;;;;;4.32;2.97;;;33.70;75.40;;;;;;5015197;28;24777;-71
2023/06/26 12:43:43;;;;;;;5.75;3.38;;;33.70;75.40;;;;;;5022144;28;20034;-71
2023/06/26 12:46:08;;;;;;;5.70;3.13;;;33.80;76.00;;;;;;5022911;28;20050;-71
2023/06/26 12:48:46;;;;;;;6.18;3.25;;;33.90;76.40;;;;;;5021939;28;20033;-71